Time;durP1;ratioP1;P1;durP2;ratioP2;P2;SDS_P1;SDS_P2;PMS_P1;PMS_P2;Temp;Humidity;BMP_temperature;BMP_pressure;BME280_temperature;BME280_humidity;BME280_pressure;Samples;Min_cycle;Max_cycle;Signal;HPM_P1;HPM_P2
2023/05/21 00:02:08;;;;;;;20.55;16.85;;;17.70;99.90;;;;;;5111939;28;20064;-68
2023/05/21 00:04:34;;;;;;;20.95;16.48;;;17.70;99.90;;;;;;5111995;28;20023;-68
2023/05/21 00:07:00;;;;;;;21.48;17.00;;;17.70;99.90;;;;;;5112059;28;20027;-72
2023/05/21 00:09:25;;;;;;;22.13;16.77;;;17.70;99.90;;;;;;5111467;28;20030;-71
2023/05/21 00:11:51;;;;;;;21.55;16.30;;;17.60;99.90;;;;;;5112215;28;20102;-67
2023/05/21 00:14:17;;;;;;;19.45;16.40;;;17.60;99.90;;;;;;5111559;28;20053;-70
2023/05/21 00:16:43;;;;;;;19.08;16.80;;;17.60;99.90;;;;;;5111924;28;20059;-69
2023/05/21 00:19:09;;;;;;;20.98;17.55;;;17.60;99.90;;;;;;5112230;28;20069;-70
2023/05/21 00:21:35;;;;;;;20.25;17.13;;;17.60;99.90;;;;;;5111718;28;20027;-69
2023/05/21 00:24:00;;;;;;;19.30;17.08;;;17.60;99.90;;;;;;5112313;28;20024;-70
2023/05/21 00:26:26;;;;;;;18.95;17.05;;;17.50;99.90;;;;;;5112139;28;20128;-71
2023/05/21 00:28:51;;;;;;;20.42;17.65;;;17.60;99.90;;;;;;5112656;28;20106;-70
2023/05/21 00:31:17;;;;;;;24.92;17.17;;;17.50;99.90;;;;;;5112871;28;20027;-69
2023/05/21 00:33:43;;;;;;;21.35;16.30;;;17.50;99.90;;;;;;5112587;28;20461;-69
2023/05/21 00:36:13;;;;;;;21.17;17.08;;;17.50;99.90;;;;;;5113038;28;20035;-69
2023/05/21 00:38:42;;;;;;;24.45;17.83;;;17.50;99.90;;;;;;5112166;28;20081;-69
2023/05/21 00:41:09;;;;;;;20.95;16.38;;;17.40;99.90;;;;;;5112152;28;20027;-69
2023/05/21 00:43:39;;;;;;;21.23;17.02;;;17.40;99.90;;;;;;5111322;28;20499;-70
2023/05/21 00:46:10;;;;;;;22.02;17.27;;;17.40;99.90;;;;;;5111835;28;20039;-70
2023/05/21 00:48:38;;;;;;;21.27;17.27;;;17.40;99.90;;;;;;5129249;28;20027;-69
2023/05/21 00:51:04;;;;;;;22.20;17.30;;;17.40;99.90;;;;;;5132879;27;20117;-71
2023/05/21 00:53:33;;;;;;;23.83;17.75;;;17.40;99.90;;;;;;5132321;27;20118;-70
2023/05/21 00:55:59;;;;;;;25.05;17.38;;;17.40;99.90;;;;;;5132602;27;20019;-69
2023/05/21 00:58:25;;;;;;;25.15;18.42;;;17.40;99.90;;;;;;5133035;27;20136;-69
2023/05/21 01:00:54;;;;;;;19.13;17.13;;;17.40;99.90;;;;;;5132162;27;20114;-70
2023/05/21 01:03:22;;;;;;;24.20;17.90;;;17.40;99.90;;;;;;5132451;28;20041;-69
2023/05/21 01:05:52;;;;;;;21.27;16.83;;;17.30;99.90;;;;;;5132092;27;20114;-70
2023/05/21 01:08:20;;;;;;;22.17;17.50;;;17.30;99.90;;;;;;5126923;27;20060;-70
2023/05/21 01:10:47;;;;;;;21.00;18.00;;;17.30;99.90;;;;;;5111439;28;20037;-68
2023/05/21 01:13:15;;;;;;;21.27;16.98;;;17.30;99.90;;;;;;5110414;28;20031;-68
2023/05/21 01:15:42;;;;;;;22.77;17.83;;;17.20;99.90;;;;;;5111492;28;20034;-69
2023/05/21 01:18:08;;;;;;;19.95;16.63;;;17.20;99.90;;;;;;5111828;28;20023;-68
2023/05/21 01:20:34;;;;;;;22.23;17.15;;;17.20;99.90;;;;;;5111246;28;20040;-68
2023/05/21 01:22:59;;;;;;;21.83;17.98;;;17.20;99.90;;;;;;5112455;28;20026;-68
2023/05/21 01:25:25;;;;;;;21.42;16.77;;;17.20;99.90;;;;;;5116037;28;20031;-69
2023/05/21 01:27:51;;;;;;;19.52;17.13;;;17.10;99.90;;;;;;5116490;28;20024;-68
2023/05/21 01:30:18;;;;;;;23.30;18.58;;;17.10;99.90;;;;;;5116613;28;20052;-68
2023/05/21 01:33:02;;;;;;;25.17;18.17;;;17.10;99.90;;;;;;5118121;28;20597;-69
2023/05/21 01:35:37;;;;;;;22.02;18.65;;;17.00;99.90;;;;;;5115284;28;20046;-68
2023/05/21 01:38:24;;;;;;;22.20;17.80;;;17.00;99.90;;;;;;5115608;28;20027;-68
2023/05/21 01:41:04;;;;;;;23.65;19.42;;;17.00;99.90;;;;;;5114935;28;20027;-68
2023/05/21 01:43:36;;;;;;;26.52;19.60;;;16.90;99.90;;;;;;5114857;28;20024;-69
2023/05/21 01:46:02;;;;;;;22.48;19.02;;;16.90;99.90;;;;;;5114783;28;20131;-70
2023/05/21 01:48:29;;;;;;;24.25;19.40;;;16.90;99.90;;;;;;5114832;28;20035;-70
2023/05/21 01:50:58;;;;;;;21.33;18.30;;;16.90;99.90;;;;;;5115082;28;20023;-69
2023/05/21 01:53:24;;;;;;;25.95;19.58;;;16.80;99.90;;;;;;5114712;28;20126;-69
2023/05/21 01:55:50;;;;;;;24.73;18.67;;;16.80;99.90;;;;;;5114602;28;20115;-70
2023/05/21 01:58:15;;;;;;;26.20;18.35;;;16.80;99.90;;;;;;5114971;28;20028;-69
2023/05/21 02:00:41;;;;;;;22.85;18.67;;;16.80;99.90;;;;;;5114590;28;20034;-69
2023/05/21 02:03:07;;;;;;;22.67;18.30;;;16.70;99.90;;;;;;5114856;28;20031;-71
2023/05/21 02:05:33;;;;;;;25.27;19.17;;;16.80;99.90;;;;;;5114500;28;20109;-69
2023/05/21 02:08:00;;;;;;;23.48;18.67;;;16.70;99.90;;;;;;5114728;28;20031;-69
2023/05/21 02:10:26;;;;;;;24.40;18.40;;;16.70;99.90;;;;;;5114755;28;20028;-69
2023/05/21 02:12:51;;;;;;;20.88;18.40;;;16.70;99.90;;;;;;5113931;28;20460;-69
2023/05/21 02:15:18;;;;;;;19.75;16.92;;;16.70;99.90;;;;;;5114189;28;20502;-70
2023/05/21 02:17:46;;;;;;;20.85;18.13;;;16.70;99.90;;;;;;5114269;28;20023;-69
2023/05/21 02:20:12;;;;;;;20.65;16.83;;;16.60;99.90;;;;;;5114501;28;20427;-69
2023/05/21 02:22:45;;;;;;;21.55;18.33;;;16.60;99.90;;;;;;5114090;28;20119;-70
2023/05/21 02:25:13;;;;;;;23.00;18.80;;;16.60;99.90;;;;;;5113665;28;20024;-68
2023/05/21 02:27:41;;;;;;;21.30;17.67;;;16.50;99.90;;;;;;5114007;28;20028;-71
2023/05/21 02:30:08;;;;;;;22.02;17.50;;;16.50;99.90;;;;;;5114267;28;20171;-68
2023/05/21 02:32:34;;;;;;;22.67;17.95;;;16.40;99.90;;;;;;5114185;28;20038;-68
2023/05/21 02:35:05;;;;;;;24.45;17.25;;;16.40;99.90;;;;;;5114176;28;20035;-69
2023/05/21 02:37:34;;;;;;;22.27;16.70;;;16.40;99.90;;;;;;5113390;28;20041;-69
2023/05/21 02:40:04;;;;;;;23.67;17.92;;;16.40;99.90;;;;;;5114090;28;20053;-71
2023/05/21 02:42:30;;;;;;;21.15;16.83;;;16.40;99.90;;;;;;5114359;28;20027;-69
2023/05/21 02:44:56;;;;;;;24.73;18.17;;;16.30;99.90;;;;;;5112379;28;20054;-68
2023/05/21 02:47:22;;;;;;;20.92;17.63;;;16.30;99.90;;;;;;5113922;28;20024;-69
2023/05/21 02:49:49;;;;;;;22.92;17.85;;;16.30;99.90;;;;;;5113592;28;20034;-69
2023/05/21 02:52:17;;;;;;;23.65;18.15;;;16.30;99.90;;;;;;5113857;28;20020;-69
2023/05/21 02:54:45;;;;;;;23.85;18.33;;;16.30;99.90;;;;;;5113307;28;20032;-70
2023/05/21 02:57:11;;;;;;;24.35;18.88;;;16.20;99.90;;;;;;5113809;28;20529;-68
2023/05/21 02:59:37;;;;;;;21.58;17.90;;;16.20;99.90;;;;;;5113282;28;20103;-68
2023/05/21 03:02:03;;;;;;;22.48;18.17;;;16.20;99.90;;;;;;5113586;28;20472;-69
2023/05/21 03:04:29;;;;;;;19.98;17.73;;;16.20;99.90;;;;;;5113669;28;20034;-69
2023/05/21 03:06:55;;;;;;;25.60;19.42;;;16.20;99.90;;;;;;5113160;28;20019;-69
2023/05/21 03:09:22;;;;;;;20.58;17.73;;;16.20;99.90;;;;;;5112898;28;20098;-68
2023/05/21 03:11:48;;;;;;;23.33;19.52;;;16.10;99.90;;;;;;5113563;28;20112;-69
2023/05/21 03:14:15;;;;;;;24.67;18.27;;;16.10;99.90;;;;;;5114129;28;20036;-68
2023/05/21 03:16:42;;;;;;;25.30;18.15;;;16.10;99.90;;;;;;5113762;28;20031;-69
2023/05/21 03:19:08;;;;;;;26.23;18.23;;;16.10;99.90;;;;;;5114034;28;20027;-69
2023/05/21 03:21:35;;;;;;;21.13;17.83;;;16.00;99.90;;;;;;5112701;28;20046;-69
2023/05/21 03:24:01;;;;;;;22.02;18.75;;;16.00;99.90;;;;;;5113211;28;20126;-71
2023/05/21 03:26:28;;;;;;;21.00;17.13;;;16.00;99.90;;;;;;5113111;28;20071;-69
2023/05/21 03:28:54;;;;;;;21.40;17.58;;;16.00;99.90;;;;;;5112715;28;20073;-70
2023/05/21 03:31:20;;;;;;;20.92;17.23;;;16.00;99.90;;;;;;5113473;28;20076;-69
2023/05/21 03:33:46;;;;;;;20.80;16.67;;;16.00;99.90;;;;;;5112397;28;20035;-69
2023/05/21 03:36:12;;;;;;;24.17;16.95;;;16.00;99.90;;;;;;5112786;28;20036;-70
2023/05/21 03:38:37;;;;;;;23.10;17.55;;;16.00;99.90;;;;;;5112646;28;20375;-68
2023/05/21 03:41:03;;;;;;;18.48;16.48;;;16.00;99.90;;;;;;5112936;28;20019;-69
2023/05/21 03:43:29;;;;;;;21.35;17.40;;;16.00;99.90;;;;;;5113000;28;20360;-69
2023/05/21 03:45:55;;;;;;;22.60;17.52;;;16.00;99.90;;;;;;5110993;28;20062;-69
2023/05/21 03:48:20;;;;;;;22.65;17.65;;;16.00;99.90;;;;;;5112709;28;20023;-69
2023/05/21 03:50:46;;;;;;;25.67;17.42;;;16.00;99.90;;;;;;5112709;28;20529;-69
2023/05/21 03:53:12;;;;;;;26.73;17.15;;;16.00;99.90;;;;;;5112749;28;20072;-68
2023/05/21 03:55:38;;;;;;;21.13;17.10;;;16.00;99.90;;;;;;5111960;28;20472;-68
2023/05/21 03:58:03;;;;;;;21.23;17.05;;;16.00;99.90;;;;;;5112680;28;20035;-70
2023/05/21 04:00:31;;;;;;;21.88;16.73;;;16.00;99.90;;;;;;5112675;28;20033;-69
2023/05/21 04:02:57;;;;;;;24.58;17.10;;;16.00;99.90;;;;;;5111932;28;20464;-69
2023/05/21 04:05:23;;;;;;;22.45;17.88;;;16.00;99.90;;;;;;5112913;28;20024;-69
2023/05/21 04:07:48;;;;;;;20.65;17.20;;;16.10;99.90;;;;;;5112150;28;20031;-69
2023/05/21 04:10:14;;;;;;;21.73;16.95;;;16.10;99.90;;;;;;5112265;28;20038;-71
2023/05/21 04:12:40;;;;;;;22.52;17.13;;;16.20;99.90;;;;;;5112142;28;20028;-69
2023/05/21 04:15:07;;;;;;;24.63;17.40;;;16.20;99.90;;;;;;5112341;28;20031;-69
2023/05/21 04:17:34;;;;;;;23.25;17.17;;;16.20;99.90;;;;;;5112480;28;20020;-69
2023/05/21 04:20:00;;;;;;;22.27;17.38;;;16.30;99.90;;;;;;5112235;28;20038;-69
2023/05/21 04:22:25;;;;;;;19.05;16.50;;;16.40;99.90;;;;;;5112219;28;20032;-70
2023/05/21 04:24:53;;;;;;;21.92;17.23;;;16.40;99.90;;;;;;5111928;28;20028;-69
2023/05/21 04:27:22;;;;;;;21.63;16.60;;;16.50;99.90;;;;;;5112672;28;20349;-70
2023/05/21 04:29:48;;;;;;;21.40;16.92;;;16.60;99.90;;;;;;5112101;28;20468;-69
2023/05/21 04:32:16;;;;;;;18.30;16.02;;;16.70;99.90;;;;;;5111827;28;20027;-68
2023/05/21 04:34:42;;;;;;;22.40;17.08;;;16.90;99.90;;;;;;5111850;28;20364;-68
2023/05/21 04:37:08;;;;;;;18.85;16.75;;;17.00;99.90;;;;;;5111863;28;20031;-69
2023/05/21 04:39:35;;;;;;;21.25;17.50;;;17.10;99.90;;;;;;5112052;28;20107;-75
2023/05/21 04:42:02;;;;;;;20.95;17.67;;;17.20;99.90;;;;;;5112097;28;20020;-69
2023/05/21 04:44:28;;;;;;;23.45;17.45;;;17.40;99.90;;;;;;5111797;28;20036;-69
2023/05/21 04:46:53;;;;;;;20.30;16.48;;;17.50;99.90;;;;;;5111770;28;20096;-69
2023/05/21 04:49:22;;;;;;;22.85;16.70;;;17.70;99.90;;;;;;5111805;28;20457;-69
2023/05/21 04:51:51;;;;;;;18.80;16.52;;;17.80;99.90;;;;;;5111641;28;20032;-70
2023/05/21 04:54:16;;;;;;;22.80;16.80;;;18.00;99.90;;;;;;5112018;28;20380;-69
2023/05/21 04:56:43;;;;;;;18.73;16.00;;;18.10;99.90;;;;;;5111304;28;20035;-69
2023/05/21 04:59:08;;;;;;;20.08;16.48;;;18.30;99.90;;;;;;5111869;28;20063;-69
2023/05/21 05:01:37;;;;;;;21.33;16.35;;;18.40;99.90;;;;;;5114720;28;20056;-69
2023/05/21 05:04:03;;;;;;;18.55;16.52;;;18.70;99.90;;;;;;5115855;28;20044;-69
2023/05/21 05:06:28;;;;;;;19.92;16.60;;;18.90;99.90;;;;;;5119161;27;20031;-70
2023/05/21 05:08:54;;;;;;;24.15;16.10;;;19.20;99.90;;;;;;5129816;27;20027;-69
2023/05/21 05:11:20;;;;;;;18.70;15.35;;;19.50;99.90;;;;;;5119035;27;20023;-69
2023/05/21 05:13:45;;;;;;;20.23;15.40;;;19.80;99.20;;;;;;5135786;27;20153;-68
2023/05/21 05:16:11;;;;;;;22.58;15.88;;;20.10;98.10;;;;;;5136469;27;20547;-69
2023/05/21 05:18:37;;;;;;;18.45;13.93;;;20.60;97.10;;;;;;5135813;27;20023;-69
2023/05/21 05:21:02;;;;;;;16.60;14.50;;;21.00;95.10;;;;;;5136021;27;20102;-69
2023/05/21 05:23:28;;;;;;;15.70;14.00;;;21.50;94.50;;;;;;5135318;27;20110;-68
2023/05/21 05:25:54;;;;;;;17.00;14.05;;;22.00;91.80;;;;;;5135583;27;20382;-69
2023/05/21 05:28:19;;;;;;;15.57;13.60;;;22.40;89.80;;;;;;5135961;27;20022;-69
2023/05/21 05:30:45;;;;;;;17.27;12.82;;;22.90;86.60;;;;;;5135709;27;20409;-69
2023/05/21 05:33:11;;;;;;;17.67;13.43;;;23.40;83.90;;;;;;5135792;27;20034;-67
2023/05/21 05:35:36;;;;;;;14.27;12.77;;;23.80;82.00;;;;;;5135461;27;20088;-74
2023/05/21 05:38:02;;;;;;;15.88;11.75;;;24.20;79.20;;;;;;5135799;27;20035;-68
2023/05/21 05:40:28;;;;;;;15.90;11.48;;;24.60;76.00;;;;;;5135930;27;20034;-68
2023/05/21 05:42:53;;;;;;;12.82;11.27;;;25.00;76.00;;;;;;5135293;27;20102;-68
2023/05/21 05:45:19;;;;;;;14.48;11.00;;;25.40;72.80;;;;;;5135397;27;20456;-69
2023/05/21 05:47:45;;;;;;;15.07;11.30;;;25.80;70.20;;;;;;5135192;27;20020;-68
2023/05/21 05:50:11;;;;;;;11.73;10.55;;;26.40;69.20;;;;;;5135898;27;20023;-68
2023/05/21 05:52:37;;;;;;;12.95;11.07;;;26.90;66.70;;;;;;5135087;27;20092;-74
2023/05/21 05:55:03;;;;;;;15.02;10.77;;;27.40;65.10;;;;;;5135516;27;20045;-68
2023/05/21 05:57:28;;;;;;;12.95;9.30;;;27.80;62.30;;;;;;5135228;27;20031;-68
2023/05/21 05:59:55;;;;;;;10.95;8.90;;;28.20;60.90;;;;;;5135343;27;20031;-71
2023/05/21 06:02:20;;;;;;;13.63;8.27;;;28.60;58.00;;;;;;5134599;27;20391;-70
2023/05/21 06:04:46;;;;;;;10.55;8.18;;;29.00;56.00;;;;;;5115193;28;20038;-69
2023/05/21 06:07:12;;;;;;;9.23;7.80;;;29.20;56.30;;;;;;5115849;28;20035;-70
2023/05/21 06:09:37;;;;;;;8.95;7.97;;;29.50;54.50;;;;;;5115136;28;20043;-77
2023/05/21 06:12:05;;;;;;;10.23;7.68;;;29.90;54.00;;;;;;5114066;28;20032;-70
2023/05/21 06:14:30;;;;;;;10.07;8.13;;;30.20;52.70;;;;;;5115562;28;20066;-69
2023/05/21 06:16:56;;;;;;;10.15;7.70;;;30.70;51.60;;;;;;5114565;28;20433;-69
2023/05/21 06:19:21;;;;;;;11.35;7.97;;;31.00;50.00;;;;;;5115064;28;20034;-69
2023/05/21 06:21:47;;;;;;;9.68;8.20;;;31.30;50.50;;;;;;5113905;28;20031;-69
2023/05/21 06:24:13;;;;;;;12.65;7.35;;;31.60;48.50;;;;;;5114626;28;20082;-69
2023/05/21 06:26:38;;;;;;;9.68;7.32;;;31.80;48.40;;;;;;5114618;28;20023;-73
2023/05/21 06:29:04;;;;;;;11.23;7.65;;;32.00;47.50;;;;;;5113483;28;20031;-69
2023/05/21 06:31:31;;;;;;;11.38;7.10;;;32.20;46.60;;;;;;5114809;28;20058;-69
2023/05/21 06:33:58;;;;;;;10.25;9.25;;;32.20;46.30;;;;;;5114082;28;20039;-69
2023/05/21 06:36:28;;;;;;;10.93;8.27;;;32.30;46.60;;;;;;5114493;28;20046;-70
2023/05/21 06:38:56;;;;;;;;;;;32.50;46.10;;;;;;5114160;28;20028;-69
2023/05/21 06:41:22;;;;;;;10.45;7.50;;;32.80;45.50;;;;;;5112023;28;19904;-69
2023/05/21 06:43:48;;;;;;;9.45;7.10;;;32.60;44.20;;;;;;5113992;28;20464;-69
2023/05/21 06:46:13;;;;;;;8.60;7.80;;;32.70;44.60;;;;;;5112917;28;20441;-69
2023/05/21 06:48:39;;;;;;;10.80;7.95;;;32.70;43.80;;;;;;5114055;28;20024;-70
2023/05/21 06:51:05;;;;;;;11.75;7.63;;;32.60;44.00;;;;;;5113845;28;20110;-70
2023/05/21 06:53:30;;;;;;;9.88;7.80;;;32.80;43.80;;;;;;5114263;28;20070;-69
2023/05/21 06:55:56;;;;;;;10.18;8.48;;;32.20;44.30;;;;;;5113527;28;20089;-69
2023/05/21 06:58:21;;;;;;;9.50;8.15;;;32.30;45.00;;;;;;5114270;28;20472;-69
2023/05/21 07:00:47;;;;;;;10.52;7.55;;;32.80;44.70;;;;;;5113761;28;20024;-69
2023/05/21 07:03:13;;;;;;;14.57;7.28;;;32.70;43.50;;;;;;5114037;28;20056;-69
2023/05/21 07:05:39;;;;;;;8.02;7.22;;;32.30;43.60;;;;;;5113401;28;20023;-69
2023/05/21 07:08:05;;;;;;;9.05;7.63;;;32.30;43.90;;;;;;5112320;28;20023;-69
2023/05/21 07:10:30;;;;;;;12.18;7.60;;;32.50;43.40;;;;;;5113891;28;20076;-69
2023/05/21 07:12:56;;;;;;;11.48;6.85;;;32.30;43.10;;;;;;5113183;28;20016;-69
2023/05/21 07:15:22;;;;;;;10.23;7.63;;;32.60;45.00;;;;;;5113802;28;20344;-69
2023/05/21 07:17:47;;;;;;;14.48;7.72;;;33.20;42.70;;;;;;5113088;28;20524;-69
2023/05/21 07:20:13;;;;;;;10.90;7.05;;;33.00;42.60;;;;;;5113745;28;20042;-69
2023/05/21 07:22:39;;;;;;;9.40;7.60;;;33.20;43.20;;;;;;5113504;28;20020;-69
2023/05/21 07:25:05;;;;;;;7.93;7.00;;;33.80;42.70;;;;;;5112821;28;20392;-69
2023/05/21 07:27:31;;;;;;;13.50;7.70;;;34.20;42.80;;;;;;5113353;28;20089;-69
2023/05/21 07:29:57;;;;;;;9.40;7.38;;;34.20;41.30;;;;;;5113195;28;20027;-70
2023/05/21 07:32:22;;;;;;;11.60;7.40;;;34.40;40.90;;;;;;5113333;28;20019;-69
2023/05/21 07:34:48;;;;;;;9.68;6.95;;;34.30;41.30;;;;;;5113111;28;20030;-70
2023/05/21 07:37:13;;;;;;;8.68;7.40;;;33.70;41.80;;;;;;5113416;28;20036;-69
2023/05/21 07:39:39;;;;;;;12.65;7.60;;;33.50;42.70;;;;;;5113403;28;20027;-69
2023/05/21 07:42:05;;;;;;;8.73;7.40;;;33.70;42.00;;;;;;5113584;28;20129;-69
2023/05/21 07:44:31;;;;;;;8.05;6.95;;;33.80;41.80;;;;;;5113427;28;20044;-70
2023/05/21 07:46:57;;;;;;;8.93;6.18;;;33.90;41.60;;;;;;5113305;28;20027;-69
2023/05/21 07:49:22;;;;;;;9.50;6.93;;;33.80;42.20;;;;;;5111785;28;20497;-68
2023/05/21 07:51:49;;;;;;;7.32;6.57;;;33.20;42.20;;;;;;5113368;28;20110;-69
2023/05/21 07:54:15;;;;;;;15.98;6.93;;;32.90;42.50;;;;;;5112763;28;20027;-69
2023/05/21 07:56:41;;;;;;;7.90;7.15;;;32.70;43.00;;;;;;5112703;28;20015;-68
2023/05/21 07:59:06;;;;;;;8.88;6.28;;;32.40;43.70;;;;;;5110837;28;20202;-69
2023/05/21 08:01:32;;;;;;;9.57;7.38;;;32.40;44.20;;;;;;5113053;27;20197;-71
2023/05/21 08:04:04;;;;;;;9.88;7.88;;;32.20;44.20;;;;;;5112681;27;20036;-69
2023/05/21 08:06:30;;;;;;;7.30;6.57;;;32.40;43.80;;;;;;5111126;28;20034;-68
2023/05/21 08:08:56;;;;;;;10.52;7.22;;;32.20;44.30;;;;;;5130839;27;20023;-67
2023/05/21 08:11:22;;;;;;;10.95;7.43;;;32.00;44.70;;;;;;5132350;27;20023;-69
2023/05/21 08:13:47;;;;;;;9.38;7.13;;;31.70;45.00;;;;;;5113562;27;20039;-72
2023/05/21 08:16:13;;;;;;;11.88;7.43;;;31.80;44.90;;;;;;5114220;28;20036;-69
2023/05/21 08:18:39;;;;;;;8.80;7.32;;;32.00;44.70;;;;;;5110283;28;20024;-69
2023/05/21 08:21:04;;;;;;;8.85;7.30;;;31.50;45.30;;;;;;5111539;28;20487;-69
2023/05/21 08:23:30;;;;;;;10.13;7.13;;;31.50;45.60;;;;;;5111008;28;20479;-70
2023/05/21 08:25:56;;;;;;;9.13;6.68;;;31.40;45.30;;;;;;5111744;28;20416;-68
2023/05/21 08:28:22;;;;;;;13.63;6.80;;;31.10;46.30;;;;;;5111720;28;20026;-68
2023/05/21 08:30:48;;;;;;;7.85;6.38;;;30.60;46.60;;;;;;5110174;28;20068;-74
2023/05/21 08:33:14;;;;;;;9.55;6.97;;;30.50;46.70;;;;;;5112019;28;20480;-68
2023/05/21 08:35:39;;;;;;;9.43;6.75;;;30.40;47.00;;;;;;5113373;28;20032;-69
2023/05/21 08:38:05;;;;;;;9.40;7.30;;;30.10;47.10;;;;;;5113523;28;20020;-69
2023/05/21 08:40:31;;;;;;;8.27;6.20;;;29.90;48.10;;;;;;5115188;28;20038;-70
2023/05/21 08:42:56;;;;;;;8.90;6.50;;;30.00;48.50;;;;;;5115427;28;20665;-70
2023/05/21 08:45:22;;;;;;;8.70;6.43;;;29.80;47.70;;;;;;5116734;28;20047;-70
2023/05/21 08:47:58;;;;;;;7.82;5.93;;;29.70;47.90;;;;;;5116598;28;20380;-70
2023/05/21 08:50:26;;;;;;;11.00;6.25;;;29.70;48.50;;;;;;5116656;28;20050;-70
2023/05/21 08:52:54;;;;;;;7.10;6.10;;;29.70;50.00;;;;;;5116262;28;20119;-71
2023/05/21 08:55:20;;;;;;;8.32;7.45;;;29.50;48.50;;;;;;5115761;28;20547;-70
2023/05/21 08:57:46;;;;;;;9.95;6.65;;;29.30;49.00;;;;;;5116672;28;20035;-70
2023/05/21 09:00:13;;;;;;;7.57;6.45;;;29.20;49.40;;;;;;5116095;28;20031;-71
2023/05/21 09:02:43;;;;;;;6.60;5.85;;;29.00;48.90;;;;;;5116499;28;20077;-70
2023/05/21 09:05:09;;;;;;;10.75;6.93;;;28.70;50.50;;;;;;5115421;28;20046;-70
2023/05/21 09:08:14;;;;;;;8.02;6.45;;;28.50;50.60;;;;;;5116243;28;20028;-69
2023/05/21 09:10:46;;;;;;;10.18;6.72;;;28.30;51.00;;;;;;5084857;28;20085;-69
2023/05/21 09:13:13;;;;;;;8.82;6.15;;;28.10;52.30;;;;;;5115868;28;20023;-69
2023/05/21 09:15:38;;;;;;;8.25;6.20;;;27.90;51.80;;;;;;5116339;28;20448;-69
2023/05/21 09:18:04;;;;;;;9.43;7.07;;;27.70;52.60;;;;;;5116035;28;20028;-69
2023/05/21 09:20:29;;;;;;;7.15;6.45;;;27.60;51.80;;;;;;5116462;28;20456;-70
2023/05/21 09:22:55;;;;;;;8.40;6.28;;;27.50;53.20;;;;;;5114037;28;20027;-69
2023/05/21 09:25:28;;;;;;;9.18;6.70;;;27.30;53.30;;;;;;5114968;28;20034;-70
2023/05/21 09:27:57;;;;;;;8.80;6.55;;;27.30;54.80;;;;;;5114491;28;20049;-71
2023/05/21 09:30:23;;;;;;;9.80;6.40;;;27.20;54.20;;;;;;5112430;28;20024;-69
2023/05/21 09:32:56;;;;;;;10.75;5.97;;;27.10;54.90;;;;;;5114986;28;20393;-69
2023/05/21 09:35:21;;;;;;;8.40;6.13;;;27.10;54.30;;;;;;5115038;28;20024;-69
2023/05/21 09:37:48;;;;;;;9.65;6.38;;;27.10;55.80;;;;;;5115072;28;20049;-71
2023/05/21 09:40:22;;;;;;;11.90;6.47;;;27.00;54.40;;;;;;5114130;28;20047;-72
2023/05/21 09:42:52;;;;;;;8.00;5.90;;;27.10;54.60;;;;;;5114763;28;20036;-71
2023/05/21 09:45:22;;;;;;;9.75;7.65;;;27.00;55.10;;;;;;5114724;28;20047;-71
2023/05/21 09:47:49;;;;;;;7.65;6.00;;;27.00;55.50;;;;;;5114593;28;20030;-71
2023/05/21 09:50:26;;;;;;;9.80;6.20;;;27.00;54.40;;;;;;5114262;28;20468;-73
2023/05/21 09:52:54;;;;;;;7.07;6.18;;;27.00;55.20;;;;;;5114469;28;20070;-77
2023/05/21 09:55:24;;;;;;;8.95;6.03;;;26.90;56.30;;;;;;5114670;28;20023;-71
2023/05/21 09:57:50;;;;;;;7.90;5.90;;;26.80;54.40;;;;;;5114340;28;20388;-70
2023/05/21 10:00:23;;;;;;;6.95;5.70;;;26.80;55.00;;;;;;5113980;28;20396;-72
2023/05/21 10:02:53;;;;;;;8.70;6.30;;;26.80;54.50;;;;;;5114390;28;20031;-70
2023/05/21 10:05:19;;;;;;;8.20;5.93;;;26.80;55.70;;;;;;5115339;28;20028;-69
2023/05/21 10:07:50;;;;;;;9.45;6.25;;;26.70;54.60;;;;;;5115207;28;20053;-70
2023/05/21 10:10:18;;;;;;;8.55;6.00;;;26.60;54.60;;;;;;5114557;28;20487;-70
2023/05/21 10:12:47;;;;;;;7.97;6.20;;;26.60;55.40;;;;;;5114526;28;20031;-70
2023/05/21 10:15:15;;;;;;;10.82;6.28;;;26.70;55.50;;;;;;5114657;28;20038;-70
2023/05/21 10:17:42;;;;;;;8.75;6.38;;;26.70;55.00;;;;;;5115155;28;20031;-70
2023/05/21 10:20:10;;;;;;;7.07;6.28;;;26.70;54.80;;;;;;5114765;28;20085;-70
2023/05/21 10:22:36;;;;;;;9.02;6.25;;;26.70;53.70;;;;;;5114975;28;20020;-68
2023/05/21 10:25:04;;;;;;;7.63;5.80;;;26.70;55.30;;;;;;5114196;28;20457;-68
2023/05/21 10:27:31;;;;;;;8.98;5.88;;;26.70;55.00;;;;;;5114883;28;20023;-69
2023/05/21 10:29:58;;;;;;;6.93;5.75;;;26.70;54.80;;;;;;5114473;28;20040;-70
2023/05/21 10:32:25;;;;;;;6.05;5.25;;;26.70;54.20;;;;;;5114563;28;20495;-70
2023/05/21 10:34:53;;;;;;;6.28;5.22;;;26.70;54.10;;;;;;5113446;28;20076;-70
2023/05/21 10:37:22;;;;;;;10.60;5.60;;;26.70;53.50;;;;;;5114466;28;20032;-70
2023/05/21 10:39:49;;;;;;;10.57;6.68;;;26.70;53.60;;;;;;5114959;28;20482;-70
2023/05/21 10:42:32;;;;;;;9.88;5.70;;;26.70;53.90;;;;;;5114326;28;20267;-70
2023/05/21 10:45:13;;;;;;;8.68;5.93;;;26.60;52.40;;;;;;5112965;28;20090;-70
2023/05/21 10:47:55;;;;;;;;;;;26.60;52.70;;;;;;5114886;28;20039;-70
2023/05/21 10:50:53;;;;;;;8.82;5.72;;;26.60;52.60;;;;;;5114446;28;19904;-70
2023/05/21 10:53:54;;;;;;;11.48;6.47;;;26.60;53.30;;;;;;5113728;28;20035;-70
2023/05/21 10:56:29;;;;;;;11.13;6.28;;;26.60;52.60;;;;;;5114401;28;20034;-70
2023/05/21 10:59:11;;;;;;;7.43;5.80;;;26.70;53.20;;;;;;5113096;28;20031;-70
2023/05/21 11:01:38;;;;;;;10.27;5.55;;;26.70;52.80;;;;;;5114360;28;20019;-70
2023/05/21 11:04:07;;;;;;;7.07;5.70;;;26.70;53.70;;;;;;5112634;28;20034;-70
2023/05/21 11:06:32;;;;;;;9.15;6.05;;;26.80;53.50;;;;;;5114095;28;20031;-68
2023/05/21 11:09:22;;;;;;;8.52;6.03;;;26.70;52.10;;;;;;5114184;28;20019;-69
2023/05/21 11:11:51;;;;;;;8.32;6.05;;;26.70;52.20;;;;;;5113757;28;20411;-70
2023/05/21 11:14:39;;;;;;;6.50;5.38;;;26.80;53.50;;;;;;5113241;28;20483;-70
2023/05/21 11:17:08;;;;;;;8.35;6.45;;;26.80;52.50;;;;;;5113773;28;20035;-70
2023/05/21 11:19:46;;;;;;;6.32;5.50;;;26.70;52.70;;;;;;5114076;28;20059;-70
2023/05/21 11:22:24;;;;;;;8.23;6.57;;;26.70;52.80;;;;;;5113442;28;20388;-70
2023/05/21 11:24:52;;;;;;;8.20;6.07;;;26.80;52.80;;;;;;5113848;28;20085;-69
2023/05/21 11:27:37;;;;;;;9.10;5.72;;;26.80;52.70;;;;;;5113388;28;20039;-70
2023/05/21 11:30:22;;;;;;;7.57;6.53;;;26.70;52.40;;;;;;5113413;27;20039;-70
2023/05/21 11:33:09;;;;;;;8.23;5.65;;;26.70;53.20;;;;;;5113089;28;20050;-69
2023/05/21 11:35:54;;;;;;;7.13;6.10;;;26.70;51.30;;;;;;5103591;27;20043;-69
2023/05/21 11:38:19;;;;;;;9.45;5.30;;;26.60;51.00;;;;;;5112927;28;20556;-70
2023/05/21 11:40:55;;;;;;;6.93;5.03;;;26.60;50.70;;;;;;5113514;28;20094;-70
2023/05/21 11:43:21;;;;;;;8.13;5.70;;;26.60;51.40;;;;;;5113190;28;20036;-69
2023/05/21 11:45:46;;;;;;;7.85;5.40;;;26.60;50.80;;;;;;5113452;28;20541;-70
2023/05/21 11:48:16;;;;;;;9.95;5.60;;;26.60;51.30;;;;;;5113058;28;20113;-71
2023/05/21 11:50:42;;;;;;;7.43;5.50;;;26.60;51.50;;;;;;5113409;28;20019;-70
2023/05/21 11:53:08;;;;;;;8.35;5.65;;;26.50;51.50;;;;;;5112502;28;20028;-68
2023/05/21 11:55:37;;;;;;;8.02;6.28;;;26.50;53.40;;;;;;5113222;28;20110;-69
2023/05/21 11:58:04;;;;;;;7.55;6.03;;;26.50;54.20;;;;;;5112874;28;20117;-69
2023/05/21 12:00:30;;;;;;;6.90;5.47;;;26.40;53.70;;;;;;5113086;28;20383;-70
2023/05/21 12:02:57;;;;;;;8.98;5.80;;;26.40;52.60;;;;;;5113299;28;20106;-69
2023/05/21 12:05:23;;;;;;;8.95;5.53;;;26.30;52.30;;;;;;5112475;28;20042;-70
2023/05/21 12:07:49;;;;;;;6.82;5.47;;;26.30;53.40;;;;;;5113250;28;20027;-68
2023/05/21 12:10:15;;;;;;;8.80;5.88;;;26.20;53.00;;;;;;5112514;28;20015;-68
2023/05/21 12:12:41;;;;;;;9.18;6.20;;;26.10;52.20;;;;;;5113122;28;20027;-69
2023/05/21 12:15:08;;;;;;;6.78;6.03;;;26.10;52.90;;;;;;5112749;28;20104;-70
2023/05/21 12:17:34;;;;;;;10.70;6.18;;;25.90;53.40;;;;;;5111867;28;20032;-69
2023/05/21 12:20:01;;;;;;;10.05;5.93;;;25.90;54.20;;;;;;5113186;28;20094;-70
2023/05/21 12:22:29;;;;;;;8.05;6.05;;;25.90;54.90;;;;;;5113099;28;20016;-70
2023/05/21 12:24:57;;;;;;;8.35;6.00;;;25.90;55.60;;;;;;5113155;28;20027;-69
2023/05/21 12:27:23;;;;;;;6.28;5.28;;;25.80;56.00;;;;;;5112664;28;20039;-69
2023/05/21 12:29:50;;;;;;;6.90;5.80;;;25.70;53.90;;;;;;5112448;28;20063;-69
2023/05/21 12:32:16;;;;;;;8.68;6.32;;;25.60;54.10;;;;;;5112476;28;20024;-69
2023/05/21 12:34:43;;;;;;;10.35;6.82;;;25.60;55.70;;;;;;5112672;28;20068;-68
2023/05/21 12:37:11;;;;;;;7.43;5.78;;;25.60;56.60;;;;;;5112299;28;20479;-70
2023/05/21 12:39:38;;;;;;;10.27;5.57;;;25.60;56.50;;;;;;5113104;28;20024;-69